This is the latest recevied weather packets stored in our database for station/object TG9ADI-20. If no packets are shown the sender has not sent any weather packets the latest 10 day(s).
| Time | Temp. | Humidity | Pressure | Rain* | Wind** | Luminosity | Snow |
|---|---|---|---|---|---|---|---|
| 1777622013 | 17.78° C | 95% | 1012 hPa | 0 mm | - | - | - |
| 1777621412 | 17.78° C | 94% | 1012 hPa | 0 mm | - | - | - |
| 1777620812 | 18.89° C | 91% | 1012 hPa | 0 mm | - | - | - |
| 1777620211 | 16.67° C | 96% | 1012 hPa | 0 mm | - | - | - |
| 1777619610 | 17.22° C | 96% | 1013 hPa | 0 mm | - | - | - |
| 1777619010 | 17.22° C | 95% | 1013 hPa | 0 mm | - | - | - |
| 1777618409 | 18.89° C | 93% | 1013 hPa | 0 mm | - | - | - |
| 1777617808 | 16.67° C | 96% | 1013 hPa | 0 mm | - | - | - |
| 1777617208 | 16.67° C | 96% | 1013 hPa | 0 mm | - | - | - |
| 1777616607 | 17.22° C | 96% | 1013 hPa | 0 mm | - | - | - |
| 1777616007 | 17.78° C | 95% | 1013 hPa | 0 mm | - | - | - |
| 1777615406 | 18.89° C | 93% | 1013 hPa | 0 mm | - | - | - |
| 1777614805 | 16.67° C | 96% | 1013 hPa | 0 mm | - | - | - |
| 1777614205 | 17.22° C | 96% | 1013 hPa | 0 mm | - | - | - |
| 1777613604 | 17.78° C | 95% | 1014 hPa | 0 mm | - | - | - |
| 1777613003 | 17.78° C | 95% | 1014 hPa | 0 mm | - | - | - |
| 1777612403 | 18.89° C | 93% | 1014 hPa | 0 mm | - | - | - |
| 1777611802 | 16.67° C | 96% | 1014 hPa | 0 mm | - | - | - |
| 1777611201 | 17.22° C | 96% | 1014 hPa | 0 mm | - | - | - |
| 1777610601 | 17.78° C | 95% | 1014 hPa | 0 mm | - | - | - |
| 1777610000 | 18.89° C | 92% | 1014 hPa | 0 mm | - | - | - |
| 1777609400 | 18.89° C | 93% | 1014 hPa | 0 mm | - | - | - |
| 1777608799 | 17.22° C | 96% | 1014 hPa | 0 mm | - | - | - |
| 1777608198 | 17.78° C | 96% | 1015 hPa | 0 mm | - | - | - |
| 1777607598 | 17.78° C | 95% | 1015 hPa | 0 mm | - | - | - |
* Rain latest hour (hover to see other rain measurements)
** Current wind speed in m/s (hover to see current wind gust speed)